Time;durP1;ratioP1;P1;durP2;ratioP2;P2;SDS_P1;SDS_P2;PMS_P1;PMS_P2;Temp;Humidity;BMP_temperature;BMP_pressure;BME280_temperature;BME280_humidity;BME280_pressure;Samples;Min_cycle;Max_cycle;Signal;HPM_P1;HPM_P2
2022/05/23 00:02:06;;;;;;;0.52;0.52;;;13.90;99.90;;;;;;4416919;32;20116;-70
2022/05/23 00:04:32;;;;;;;0.20;0.20;;;13.90;99.90;;;;;;4425256;32;20127;-69
2022/05/23 00:06:59;;;;;;;8.75;2.78;;;13.90;99.90;;;;;;4423948;32;20092;-70
2022/05/23 00:09:25;;;;;;;0.43;0.43;;;13.90;99.90;;;;;;4425165;32;20069;-70
2022/05/23 00:11:52;;;;;;;3.40;0.93;;;13.70;99.90;;;;;;4426699;32;20074;-69
2022/05/23 00:14:18;;;;;;;0.30;0.30;;;13.70;99.90;;;;;;4426722;32;20129;-69
2022/05/23 00:16:47;;;;;;;0.35;0.35;;;13.70;99.90;;;;;;4424821;32;20081;-69
2022/05/23 00:19:14;;;;;;;0.37;0.37;;;13.70;99.90;;;;;;4425190;32;20069;-70
2022/05/23 00:21:41;;;;;;;1.17;0.62;;;13.60;99.90;;;;;;4425628;32;20112;-70
2022/05/23 00:24:08;;;;;;;0.40;0.40;;;13.60;99.90;;;;;;4423501;32;20068;-70
2022/05/23 00:26:33;;;;;;;0.43;0.43;;;13.60;99.90;;;;;;4424444;32;20073;-70
2022/05/23 00:28:59;;;;;;;0.37;0.37;;;13.50;99.90;;;;;;4408763;32;20057;-70
2022/05/23 00:31:25;;;;;;;0.30;0.30;;;13.50;99.90;;;;;;4411328;32;20502;-70
2022/05/23 00:36:36;;;;;;;0.22;0.22;;;13.60;99.90;;;;;;4410780;32;20073;-69
2022/05/23 00:39:02;;;;;;;0.43;0.40;;;13.70;99.90;;;;;;4424480;32;20830;-68
2022/05/23 00:43:35;;;;;;;3.30;1.10;;;13.70;99.90;;;;;;4425338;32;20567;-68
2022/05/23 00:44:24;;;;;;;1.17;1.02;;;13.70;99.90;;;;;;4424653;32;20065;-70
2022/05/23 00:46:59;;;;;;;0.28;0.28;;;13.70;99.90;;;;;;4424350;32;20061;-69
2022/05/23 00:49:27;;;;;;;0.30;0.30;;;13.50;99.90;;;;;;4425788;32;20496;-69
2022/05/23 00:51:54;;;;;;;0.30;0.30;;;13.60;99.90;;;;;;4426303;32;20077;-69
2022/05/23 00:54:21;;;;;;;0.43;0.43;;;13.60;99.90;;;;;;4424532;32;20282;-69
2022/05/23 00:56:50;;;;;;;0.30;0.30;;;13.50;99.90;;;;;;4424689;32;20101;-69
2022/05/23 00:59:21;;;;;;;0.50;0.50;;;13.40;99.90;;;;;;4406626;32;20407;-69
2022/05/23 01:01:46;;;;;;;1.02;0.75;;;13.50;99.90;;;;;;4415304;32;20451;-69
2022/05/23 01:04:12;;;;;;;0.30;0.30;;;13.40;99.90;;;;;;4423373;32;20061;-70
2022/05/23 01:06:38;;;;;;;1.10;0.55;;;13.50;99.90;;;;;;4424313;32;20069;-69
2022/05/23 01:09:03;;;;;;;0.50;0.50;;;13.40;99.90;;;;;;4424610;32;20161;-70
2022/05/23 01:11:29;;;;;;;0.47;0.40;;;13.40;99.90;;;;;;4424419;32;20089;-70
2022/05/23 01:13:54;;;;;;;0.30;0.30;;;13.40;99.90;;;;;;4424501;32;20128;-70
2022/05/23 01:16:21;;;;;;;0.52;0.30;;;13.40;99.90;;;;;;4424090;32;20077;-69
2022/05/23 01:18:47;;;;;;;0.30;0.30;;;13.40;99.90;;;;;;4425495;32;20057;-70
2022/05/23 01:21:41;;;;;;;0.50;0.50;;;13.40;99.90;;;;;;4425210;32;20558;-70
2022/05/23 01:24:14;;;;;;;0.45;0.45;;;13.30;99.90;;;;;;4421832;32;20105;-69
2022/05/23 01:26:40;;;;;;;0.50;0.50;;;13.30;99.90;;;;;;4423928;32;20069;-70
2022/05/23 01:29:14;;;;;;;2.00;0.55;;;13.30;99.90;;;;;;4407782;32;20062;-70
2022/05/23 01:31:41;;;;;;;0.35;0.35;;;13.30;99.90;;;;;;4414966;32;20130;-69
2022/05/23 01:34:07;;;;;;;0.40;0.40;;;13.30;99.90;;;;;;4422570;32;20147;-69
2022/05/23 01:36:33;;;;;;;0.55;0.55;;;13.40;99.90;;;;;;4408518;32;20588;-70
2022/05/23 01:38:59;;;;;;;0.47;0.47;;;13.40;99.90;;;;;;4422710;32;20065;-69
2022/05/23 01:41:25;;;;;;;0.30;0.30;;;13.40;99.90;;;;;;4426326;32;20439;-69
2022/05/23 01:43:51;;;;;;;0.35;0.35;;;13.40;99.90;;;;;;4424429;32;20086;-69
2022/05/23 01:46:16;;;;;;;1.98;0.50;;;13.40;99.90;;;;;;4423744;32;20504;-69
2022/05/23 01:48:41;;;;;;;0.45;0.37;;;13.40;99.90;;;;;;4423608;32;20096;-69
2022/05/23 01:51:07;;;;;;;0.25;0.25;;;13.40;99.90;;;;;;4424679;32;20065;-69
2022/05/23 01:53:32;;;;;;;3.03;0.57;;;13.40;99.90;;;;;;4423198;32;20140;-69
2022/05/23 01:56:03;;;;;;;3.40;1.05;;;13.30;99.90;;;;;;4423860;32;20119;-69
2022/05/23 02:01:15;;;;;;;0.65;0.45;;;13.20;99.90;;;;;;4396329;32;20061;-69
2022/05/23 02:03:42;;;;;;;0.20;0.20;;;13.20;99.90;;;;;;4425305;32;20081;-69
2022/05/23 02:06:08;;;;;;;0.30;0.30;;;13.20;99.90;;;;;;4422024;32;20530;-70
2022/05/23 02:08:34;;;;;;;0.68;0.68;;;13.10;99.90;;;;;;4422830;32;20076;-70
2022/05/23 02:10:59;;;;;;;1.08;0.77;;;13.10;99.90;;;;;;4426756;32;20070;-70
2022/05/23 02:13:25;;;;;;;0.60;0.60;;;13.10;99.90;;;;;;4426899;32;20093;-70
2022/05/23 02:15:50;;;;;;;0.60;0.60;;;13.10;99.90;;;;;;4422533;32;20061;-70
2022/05/23 02:18:16;;;;;;;0.40;0.40;;;13.10;99.90;;;;;;4425844;32;20078;-70
2022/05/23 02:20:41;;;;;;;4.00;1.05;;;13.10;99.90;;;;;;4409815;32;20089;-71
2022/05/23 02:23:07;;;;;;;0.28;0.28;;;13.10;99.90;;;;;;4422884;32;20081;-69
2022/05/23 02:25:33;;;;;;;0.37;0.37;;;13.10;99.90;;;;;;4423920;32;20463;-69
2022/05/23 02:27:58;;;;;;;0.60;0.60;;;13.10;99.90;;;;;;4415055;32;20089;-69
2022/05/23 02:30:24;;;;;;;0.40;0.40;;;13.10;99.90;;;;;;4406493;32;20081;-70
2022/05/23 02:32:50;;;;;;;0.62;0.60;;;13.10;99.90;;;;;;4422205;32;20073;-69
2022/05/23 02:35:17;;;;;;;0.30;0.30;;;13.00;99.90;;;;;;4423563;32;20121;-69
2022/05/23 02:37:43;;;;;;;0.43;0.43;;;13.00;99.90;;;;;;4422997;32;20128;-69
2022/05/23 02:40:09;;;;;;;0.50;0.37;;;13.00;99.90;;;;;;4412662;32;20058;-69
2022/05/23 02:42:35;;;;;;;0.75;0.75;;;13.00;99.90;;;;;;4428455;32;20074;-70
2022/05/23 02:45:00;;;;;;;0.47;0.47;;;12.90;99.90;;;;;;4427950;32;20518;-69
2022/05/23 02:47:26;;;;;;;0.30;0.30;;;12.90;99.90;;;;;;4426495;32;20053;-70
2022/05/23 02:49:51;;;;;;;1.40;0.52;;;13.00;99.90;;;;;;4427323;32;20061;-69
2022/05/23 02:52:17;;;;;;;0.52;0.52;;;13.00;99.90;;;;;;4426336;32;20438;-69
2022/05/23 02:54:43;;;;;;;1.35;0.43;;;12.90;99.90;;;;;;4426407;32;20073;-69
2022/05/23 02:57:08;;;;;;;0.52;0.50;;;12.90;99.90;;;;;;4421276;32;20109;-69
2022/05/23 02:59:34;;;;;;;0.40;0.40;;;12.90;99.90;;;;;;4407189;32;20077;-69
2022/05/23 03:03:02;;;;;;;0.68;0.55;;;12.90;99.90;;;;;;4419928;32;20058;-69
2022/05/23 03:04:45;;;;;;;0.68;0.60;;;12.90;99.90;;;;;;4413637;32;20153;-69
2022/05/23 03:07:11;;;;;;;0.35;0.35;;;13.00;99.90;;;;;;4410748;32;20116;-69
2022/05/23 03:09:36;;;;;;;0.37;0.37;;;12.90;99.90;;;;;;4427590;32;20085;-69
2022/05/23 03:12:02;;;;;;;0.68;0.68;;;12.90;99.90;;;;;;4428174;32;20078;-69
2022/05/23 03:14:28;;;;;;;1.15;0.60;;;12.90;99.90;;;;;;4427145;32;20089;-69
2022/05/23 03:16:59;;;;;;;0.30;0.30;;;12.90;99.90;;;;;;4425745;32;20135;-69
2022/05/23 03:19:25;;;;;;;1.15;0.60;;;12.80;99.90;;;;;;4427057;32;20101;-69
2022/05/23 03:27:09;;;;;;;0.40;0.40;;;12.80;99.90;;;;;;4414628;32;20541;-69
2022/05/23 03:27:21;;;;;;;0.85;0.82;;;12.70;99.90;;;;;;4408833;32;20462;-69
2022/05/23 03:29:46;;;;;;;0.75;0.43;;;12.60;99.90;;;;;;4408544;32;21058;-69
2022/05/23 03:32:13;;;;;;;0.43;0.43;;;12.60;99.90;;;;;;4419440;32;20086;-69
2022/05/23 03:34:38;;;;;;;0.40;0.40;;;12.60;99.90;;;;;;4424127;32;20066;-69
2022/05/23 03:37:05;;;;;;;1.05;0.62;;;12.60;99.90;;;;;;4421380;32;20132;-70
2022/05/23 03:39:31;;;;;;;2.22;1.40;;;12.70;99.90;;;;;;4424944;32;20120;-68
2022/05/23 03:41:56;;;;;;;0.60;0.60;;;12.70;99.90;;;;;;4424252;32;20436;-69
2022/05/23 03:44:22;;;;;;;4.57;0.68;;;12.70;99.90;;;;;;4426586;32;20069;-70
2022/05/23 03:46:47;;;;;;;3.17;1.25;;;12.70;99.90;;;;;;4422946;32;20529;-69
2022/05/23 03:49:13;;;;;;;0.50;0.50;;;12.70;99.90;;;;;;4425718;32;20104;-70
2022/05/23 03:51:38;;;;;;;0.30;0.30;;;12.70;99.90;;;;;;4412283;32;20092;-71
2022/05/23 03:54:04;;;;;;;0.60;0.60;;;12.70;99.90;;;;;;4423706;32;20081;-69
2022/05/23 03:56:29;;;;;;;0.68;0.57;;;12.60;99.90;;;;;;4424735;32;20534;-70
2022/05/23 03:58:55;;;;;;;0.40;0.40;;;12.70;99.90;;;;;;4409038;32;21498;-68
2022/05/23 04:01:24;;;;;;;0.40;0.40;;;12.70;99.90;;;;;;4411006;32;20112;-69
2022/05/23 04:03:50;;;;;;;1.83;0.70;;;12.80;99.90;;;;;;4425797;32;20089;-70
2022/05/23 04:06:16;;;;;;;0.37;0.37;;;12.70;99.90;;;;;;4424721;32;20061;-70
2022/05/23 04:08:41;;;;;;;0.20;0.20;;;12.80;99.90;;;;;;4424014;32;20120;-70
2022/05/23 04:11:07;;;;;;;0.43;0.43;;;12.80;99.90;;;;;;4425804;32;20066;-70
2022/05/23 04:13:34;;;;;;;1.00;0.95;;;12.70;99.90;;;;;;4424774;32;20074;-69
2022/05/23 04:15:59;;;;;;;6.22;1.33;;;12.70;99.90;;;;;;4424875;32;20116;-70
2022/05/23 04:18:25;;;;;;;0.30;0.30;;;12.70;99.90;;;;;;4424341;32;20097;-70
2022/05/23 04:20:51;;;;;;;0.25;0.25;;;12.80;99.90;;;;;;4420828;32;20419;-68
2022/05/23 04:23:17;;;;;;;0.30;0.30;;;12.90;99.90;;;;;;4388869;32;20546;-68
2022/05/23 04:25:45;;;;;;;0.52;0.52;;;13.00;99.90;;;;;;4383582;32;20744;-70
2022/05/23 04:28:12;;;;;;;0.50;0.50;;;13.00;99.90;;;;;;4374626;32;20069;-69
2022/05/23 04:30:38;;;;;;;0.68;0.68;;;13.00;99.90;;;;;;4365566;32;20057;-69
2022/05/23 04:35:20;;;;;;;0.50;0.50;;;13.00;99.90;;;;;;4381376;32;20127;-69
2022/05/23 04:35:51;;;;;;;0.30;0.30;;;13.00;99.90;;;;;;4398546;32;20166;-68
2022/05/23 04:38:17;;;;;;;0.50;0.50;;;13.10;99.90;;;;;;4419189;32;20529;-68
2022/05/23 04:40:43;;;;;;;5.15;0.70;;;13.30;99.90;;;;;;4421392;32;20117;-70
2022/05/23 04:43:09;;;;;;;1.08;0.62;;;13.30;99.90;;;;;;4422596;32;20072;-70
2022/05/23 04:45:34;;;;;;;0.40;0.40;;;13.30;99.90;;;;;;4424805;32;20066;-70
2022/05/23 04:50:00;;;;;;;0.37;0.37;;;13.40;99.90;;;;;;4424182;32;20060;-70
2022/05/23 04:50:45;;;;;;;0.32;0.32;;;13.50;99.90;;;;;;4414530;32;20537;-70
2022/05/23 04:53:11;;;;;;;1.20;0.55;;;13.60;99.90;;;;;;4393653;32;20209;-69
2022/05/23 04:55:38;;;;;;;0.90;0.90;;;13.70;99.90;;;;;;4384232;32;20487;-69
2022/05/23 04:58:04;;;;;;;0.60;0.60;;;13.70;99.90;;;;;;4413714;32;20128;-70
2022/05/23 05:00:30;;;;;;;1.15;0.73;;;13.70;99.90;;;;;;4403490;32;20054;-70
2022/05/23 05:03:00;;;;;;;0.52;0.52;;;13.80;99.90;;;;;;4403797;32;20082;-69
2022/05/23 05:05:29;;;;;;;1.65;0.68;;;13.80;99.90;;;;;;4385445;32;20658;-70
2022/05/23 05:07:56;;;;;;;0.52;0.52;;;13.90;99.90;;;;;;4379390;32;20057;-70
2022/05/23 05:10:23;;;;;;;0.37;0.37;;;13.90;99.90;;;;;;4373213;32;20132;-71
2022/05/23 05:12:50;;;;;;;0.60;0.60;;;14.00;99.90;;;;;;4371658;32;20097;-70
2022/05/23 05:15:16;;;;;;;0.50;0.50;;;13.90;99.90;;;;;;4377770;32;20455;-70
2022/05/23 05:17:41;;;;;;;0.65;0.60;;;14.00;99.90;;;;;;4374392;32;20493;-70
2022/05/23 05:20:08;;;;;;;0.50;0.50;;;14.00;99.90;;;;;;4328449;32;20114;-70
2022/05/23 05:22:35;;;;;;;0.37;0.37;;;14.10;99.90;;;;;;4329115;32;20488;-70
2022/05/23 05:25:07;;;;;;;0.35;0.35;;;14.00;99.90;;;;;;4317823;32;20373;-70
2022/05/23 05:27:35;;;;;;;1.15;0.70;;;14.10;99.90;;;;;;4335311;32;21070;-69
2022/05/23 05:30:03;;;;;;;0.55;0.55;;;14.10;99.90;;;;;;4306952;32;21314;-70
2022/05/23 05:32:45;;;;;;;0.77;0.77;;;14.20;99.90;;;;;;4336473;32;20291;-71
2022/05/23 05:35:32;;;;;;;0.37;0.37;;;14.30;99.90;;;;;;4330563;32;20739;-71
2022/05/23 05:38:04;;;;;;;0.43;0.40;;;14.40;99.90;;;;;;4334231;32;21091;-69
2022/05/23 05:40:34;;;;;;;0.40;0.40;;;14.50;99.90;;;;;;4337459;32;20456;-69
2022/05/23 05:43:07;;;;;;;0.35;0.35;;;14.60;99.90;;;;;;4358360;32;20338;-69
2022/05/23 05:45:41;;;;;;;6.40;0.40;;;14.70;99.90;;;;;;4374275;32;21064;-70
2022/05/23 05:48:07;;;;;;;0.35;0.35;;;14.90;99.90;;;;;;4390773;32;20275;-70
2022/05/23 05:50:37;;;;;;;0.50;0.50;;;15.00;99.90;;;;;;4366017;32;20248;-70
2022/05/23 05:53:09;;;;;;;9.65;1.92;;;15.10;99.90;;;;;;4379956;32;20396;-70
2022/05/23 05:55:35;;;;;;;1.10;0.60;;;15.20;99.90;;;;;;4386406;32;20093;-70
2022/05/23 05:58:01;;;;;;;0.30;0.30;;;15.30;99.90;;;;;;4381118;32;20127;-70
2022/05/23 06:00:26;;;;;;;0.30;0.30;;;15.30;99.90;;;;;;4356962;32;20115;-70
2022/05/23 06:02:52;;;;;;;0.40;0.40;;;15.40;99.90;;;;;;4348718;32;20885;-71
2022/05/23 06:05:18;;;;;;;0.40;0.40;;;15.50;99.90;;;;;;4341281;32;20089;-70
2022/05/23 06:11:23;;;;;;;0.37;0.37;;;15.60;99.90;;;;;;4360293;32;20220;-70
2022/05/23 06:13:15;;;;;;;0.70;0.43;;;15.70;99.90;;;;;;4364108;32;21206;-71
2022/05/23 06:15:40;;;;;;;0.60;0.60;;;15.80;99.90;;;;;;4366947;32;20089;-70
2022/05/23 06:18:06;;;;;;;0.40;0.40;;;15.80;99.90;;;;;;4361145;32;20601;-71
2022/05/23 06:20:32;;;;;;;0.30;0.30;;;16.00;99.90;;;;;;4374918;32;20820;-70
2022/05/23 06:22:58;;;;;;;0.40;0.40;;;16.10;99.90;;;;;;4377205;32;20089;-70
2022/05/23 06:25:23;;;;;;;0.40;0.40;;;16.20;99.90;;;;;;4374308;32;20138;-70
2022/05/23 06:27:49;;;;;;;0.40;0.40;;;16.20;99.90;;;;;;4381051;32;20109;-70
2022/05/23 06:30:16;;;;;;;0.22;0.22;;;16.30;99.90;;;;;;4369719;32;21403;-70
2022/05/23 06:32:42;;;;;;;1.65;0.47;;;16.40;99.90;;;;;;4368576;32;20299;-70
2022/05/23 06:35:08;;;;;;;0.30;0.30;;;16.40;99.90;;;;;;4345421;32;20703;-71
2022/05/23 06:37:35;;;;;;;0.50;0.50;;;16.50;99.90;;;;;;4365669;32;21719;-70
2022/05/23 06:40:03;;;;;;;0.35;0.35;;;16.60;99.90;;;;;;4388264;32;20092;-70
2022/05/23 06:42:30;;;;;;;0.40;0.40;;;16.70;99.90;;;;;;4379420;32;20219;-70
2022/05/23 06:44:55;;;;;;;0.40;0.40;;;16.80;99.90;;;;;;4373343;32;20211;-70
2022/05/23 06:47:21;;;;;;;0.30;0.30;;;16.90;99.90;;;;;;4365601;32;20172;-70
2022/05/23 06:49:46;;;;;;;0.52;0.52;;;17.00;99.90;;;;;;4363608;32;21039;-71
2022/05/23 06:52:15;;;;;;;0.40;0.40;;;17.00;99.90;;;;;;4374354;32;20077;-70
2022/05/23 06:54:41;;;;;;;0.50;0.50;;;17.00;99.90;;;;;;4369532;32;20236;-71
2022/05/23 06:57:07;;;;;;;0.47;0.43;;;17.20;99.90;;;;;;4382202;32;20082;-70
2022/05/23 06:59:33;;;;;;;0.30;0.30;;;17.30;99.90;;;;;;4361449;32;20081;-70
2022/05/23 07:01:58;;;;;;;0.32;0.30;;;17.40;99.90;;;;;;4366223;32;20624;-71
2022/05/23 07:04:24;;;;;;;2.45;0.95;;;17.50;99.90;;;;;;4354122;32;20090;-71
2022/05/23 07:12:21;;;;;;;0.50;0.50;;;17.70;99.90;;;;;;4379568;32;20139;-72
2022/05/23 07:14:47;;;;;;;0.40;0.40;;;17.70;99.90;;;;;;4385467;32;20105;-71
2022/05/23 07:17:13;;;;;;;0.57;0.52;;;17.80;99.90;;;;;;4370215;32;20106;-71
2022/05/23 07:19:40;;;;;;;0.40;0.40;;;17.90;99.90;;;;;;4366853;32;20583;-71
2022/05/23 07:22:05;;;;;;;0.30;0.30;;;18.00;99.90;;;;;;4371610;32;20612;-71
2022/05/23 07:24:31;;;;;;;0.30;0.30;;;18.10;99.90;;;;;;4380751;32;20082;-71
2022/05/23 07:26:58;;;;;;;0.47;0.47;;;18.20;99.90;;;;;;4387895;32;20109;-71
2022/05/23 07:29:24;;;;;;;0.40;0.40;;;18.20;99.90;;;;;;4344886;32;20325;-73
2022/05/23 07:31:51;;;;;;;0.60;0.60;;;18.20;99.90;;;;;;4317342;32;20521;-72
2022/05/23 07:34:17;;;;;;;1.35;0.45;;;18.30;99.90;;;;;;4310745;32;20120;-72
2022/05/23 07:36:44;;;;;;;0.75;0.68;;;18.30;99.90;;;;;;4335724;32;105871;-72
2022/05/23 07:39:11;;;;;;;0.35;0.35;;;18.40;99.90;;;;;;4380274;32;20270;-70
2022/05/23 07:41:39;;;;;;;0.50;0.50;;;18.40;99.90;;;;;;4383550;32;20220;-70
2022/05/23 07:44:06;;;;;;;0.40;0.40;;;18.60;99.90;;;;;;4385770;32;20077;-71
2022/05/23 07:46:32;;;;;;;0.75;0.62;;;18.60;99.90;;;;;;4375330;32;24831;-72
2022/05/23 07:48:59;;;;;;;0.30;0.30;;;18.80;99.90;;;;;;4348522;32;20409;-71
2022/05/23 07:51:24;;;;;;;1.15;0.32;;;18.90;99.90;;;;;;4371963;32;20113;-71
2022/05/23 08:00:37;;;;;;;0.60;0.60;;;19.20;99.90;;;;;;4332310;32;20354;-70
2022/05/23 08:02:08;;;;;;;0.45;0.45;;;19.20;99.90;;;;;;4340679;32;20097;-71
2022/05/23 08:04:34;;;;;;;0.30;0.30;;;19.30;99.70;;;;;;4337651;32;20701;-71
2022/05/23 08:06:59;;;;;;;1.00;0.50;;;19.30;99.80;;;;;;4352984;32;21969;-71
2022/05/23 08:09:25;;;;;;;0.60;0.55;;;19.50;99.90;;;;;;4381327;32;20256;-70
2022/05/23 08:11:53;;;;;;;0.30;0.30;;;19.60;99.20;;;;;;4375553;32;20963;-71
2022/05/23 08:14:19;;;;;;;0.40;0.40;;;19.70;99.60;;;;;;4382559;32;20100;-71
2022/05/23 08:16:45;;;;;;;0.40;0.40;;;19.80;99.30;;;;;;4382508;32;20085;-71
2022/05/23 08:19:11;;;;;;;0.30;0.30;;;19.90;98.20;;;;;;4363322;32;20109;-71
2022/05/23 08:21:46;;;;;;;0.32;0.32;;;19.70;98.10;;;;;;4377364;32;20109;-71
2022/05/23 08:24:11;;;;;;;0.73;0.73;;;19.80;97.80;;;;;;4367027;32;20368;-72
2022/05/23 08:26:37;;;;;;;5.82;1.20;;;19.90;96.90;;;;;;4388377;32;20724;-71
2022/05/23 08:29:02;;;;;;;0.40;0.40;;;19.70;97.30;;;;;;4370860;32;20371;-72
2022/05/23 08:31:28;;;;;;;5.37;1.27;;;19.80;96.80;;;;;;4369525;32;20263;-70
2022/05/23 08:33:54;;;;;;;0.35;0.35;;;19.80;96.90;;;;;;4344571;32;20145;-73
2022/05/23 08:36:19;;;;;;;0.30;0.30;;;19.90;96.50;;;;;;4361074;32;20142;-72
2022/05/23 08:38:44;;;;;;;0.20;0.20;;;19.90;96.40;;;;;;4372562;32;20582;-72
2022/05/23 08:41:24;;;;;;;0.32;0.32;;;20.00;96.20;;;;;;4382866;32;20389;-70
2022/05/23 08:44:07;;;;;;;0.20;0.20;;;20.10;96.00;;;;;;4365090;32;20105;-71
2022/05/23 08:46:44;;;;;;;0.30;0.30;;;20.10;95.10;;;;;;4375330;32;20774;-71
2022/05/23 08:49:34;;;;;;;0.25;0.25;;;20.20;95.40;;;;;;4366104;32;20859;-71
2022/05/23 08:52:07;;;;;;;0.40;0.40;;;20.40;94.30;;;;;;4374655;32;20169;-71
2022/05/23 08:54:54;;;;;;;0.43;0.43;;;20.20;94.60;;;;;;4376485;32;22135;-70
2022/05/23 08:57:28;;;;;;;0.30;0.30;;;20.40;94.50;;;;;;4378880;32;20790;-69
2022/05/23 08:59:58;;;;;;;0.30;0.30;;;20.40;93.50;;;;;;4362537;32;20122;-70
2022/05/23 09:02:27;;;;;;;1.83;0.60;;;20.40;93.90;;;;;;4363649;32;20381;-69
2022/05/23 09:04:58;;;;;;;0.22;0.22;;;20.40;93.90;;;;;;4335904;32;20811;-69
2022/05/23 09:07:31;;;;;;;0.30;0.30;;;20.50;94.00;;;;;;4348251;32;20102;-69
2022/05/23 09:10:02;;;;;;;0.20;0.20;;;20.40;94.10;;;;;;4349845;32;20287;-70
2022/05/23 09:12:27;;;;;;;;;;;20.50;93.90;;;;;;4367976;32;20097;-69
2022/05/23 09:14:53;;;;;;;0.40;0.37;;;20.60;94.20;;;;;;4371834;32;20059;-70
2022/05/23 09:17:23;;;;;;;0.30;0.30;;;20.60;93.00;;;;;;4376901;32;20098;-69
2022/05/23 09:20:01;;;;;;;0.30;0.30;;;20.60;93.10;;;;;;4359767;32;20347;-70
2022/05/23 09:22:36;;;;;;;0.30;0.30;;;20.70;93.30;;;;;;4339666;32;20538;-70
2022/05/23 09:25:03;;;;;;;0.40;0.40;;;20.60;93.50;;;;;;4356854;32;20531;-70
2022/05/23 09:27:40;;;;;;;0.32;0.32;;;20.70;92.90;;;;;;4362747;32;20085;-69
2022/05/23 09:30:10;;;;;;;0.82;0.65;;;20.80;93.40;;;;;;4329117;32;20513;-69
2022/05/23 09:32:56;;;;;;;0.30;0.30;;;20.80;92.80;;;;;;4351217;32;20231;-69
2022/05/23 09:35:24;;;;;;;0.35;0.35;;;20.90;93.00;;;;;;4313429;32;20938;-70
2022/05/23 09:38:26;;;;;;;0.30;0.30;;;20.90;92.80;;;;;;4350919;32;20117;-68
2022/05/23 09:40:53;;;;;;;0.80;0.30;;;20.90;92.30;;;;;;4337604;32;20895;-70
2022/05/23 09:47:59;;;;;;;0.30;0.30;;;21.00;92.10;;;;;;4355198;32;20945;-69
2022/05/23 09:49:23;;;;;;;0.22;0.22;;;21.10;92.70;;;;;;4334410;32;20662;-69
2022/05/23 09:52:11;;;;;;;0.20;0.20;;;21.10;93.20;;;;;;4362266;32;20437;-69
2022/05/23 09:54:56;;;;;;;0.37;0.37;;;21.20;92.10;;;;;;4354034;32;20105;-69
2022/05/23 09:57:36;;;;;;;0.90;0.88;;;21.30;91.00;;;;;;4379728;32;20176;-68
2022/05/23 10:00:06;;;;;;;0.20;0.20;;;21.10;91.40;;;;;;4352450;32;20093;-71
2022/05/23 10:02:37;;;;;;;0.20;0.20;;;21.20;91.00;;;;;;4352212;32;20264;-71
2022/05/23 10:05:06;;;;;;;0.30;0.30;;;21.10;91.90;;;;;;4330675;32;20140;-72
2022/05/23 10:07:36;;;;;;;0.22;0.22;;;21.30;91.30;;;;;;4338513;32;20098;-70
2022/05/23 10:10:07;;;;;;;0.60;0.60;;;21.50;92.20;;;;;;4350526;32;20375;-71
2022/05/23 10:12:33;;;;;;;0.40;0.40;;;21.70;90.50;;;;;;4366173;32;20595;-70
2022/05/23 10:15:22;;;;;;;0.30;0.30;;;21.70;90.90;;;;;;4370643;32;21504;-70
2022/05/23 10:18:09;;;;;;;0.47;0.47;;;21.70;90.60;;;;;;4345629;32;20328;-69
2022/05/23 10:20:37;;;;;;;0.65;0.37;;;22.00;90.50;;;;;;4333264;32;20250;-69
2022/05/23 10:23:12;;;;;;;0.50;0.40;;;22.10;88.60;;;;;;4343230;32;20109;-71
2022/05/23 10:25:49;;;;;;;0.45;0.45;;;22.10;90.00;;;;;;4385560;32;20257;-69
2022/05/23 10:28:25;;;;;;;0.50;0.50;;;22.00;90.90;;;;;;4378914;32;20109;-69
2022/05/23 10:31:12;;;;;;;0.30;0.30;;;22.00;90.60;;;;;;4374145;32;20105;-69
2022/05/23 10:33:40;;;;;;;0.40;0.40;;;22.20;90.60;;;;;;4326316;32;21075;-69
2022/05/23 10:36:14;;;;;;;1.15;0.40;;;22.30;91.00;;;;;;4352197;32;20261;-68
2022/05/23 10:42:32;;;;;;;0.20;0.20;;;22.50;89.90;;;;;;4350924;32;20098;-67
2022/05/23 10:52:48;;;;;;;0.30;0.30;;;22.70;88.60;;;;;;4335750;32;20314;-69
2022/05/23 10:54:47;;;;;;;0.10;0.10;;;23.00;87.30;;;;;;4333283;32;20507;-69
2022/05/23 10:57:45;;;;;;;0.30;0.30;;;23.00;88.30;;;;;;4368023;32;20477;-69
2022/05/23 11:00:15;;;;;;;0.35;0.35;;;22.90;87.30;;;;;;4347757;32;20721;-69
2022/05/23 11:03:20;;;;;;;0.25;0.25;;;22.90;86.50;;;;;;4356569;32;20658;-69
2022/05/23 11:05:56;;;;;;;0.20;0.20;;;23.00;86.40;;;;;;4329395;32;20112;-68
2022/05/23 11:08:37;;;;;;;0.20;0.20;;;23.10;89.60;;;;;;4367295;32;20355;-68
2022/05/23 11:11:23;;;;;;;0.30;0.30;;;23.00;85.70;;;;;;4360074;32;20410;-69
2022/05/23 11:14:08;;;;;;;0.45;0.45;;;22.90;87.50;;;;;;4353984;32;20241;-68
2022/05/23 11:16:47;;;;;;;0.62;0.62;;;22.90;85.40;;;;;;4365051;32;20094;-68
2022/05/23 11:19:31;;;;;;;0.68;0.57;;;22.80;87.30;;;;;;4351215;32;20121;-68
2022/05/23 11:22:04;;;;;;;0.28;0.28;;;22.80;88.20;;;;;;4361094;32;20113;-68
2022/05/23 11:24:34;;;;;;;0.37;0.37;;;22.70;87.20;;;;;;4349723;32;20626;-69
2022/05/23 11:33:50;;;;;;;0.47;0.47;;;22.90;87.10;;;;;;4349304;32;20332;-69
2022/05/23 11:35:42;;;;;;;0.30;0.30;;;22.90;85.70;;;;;;4332015;32;20442;-69
2022/05/23 11:38:09;;;;;;;0.47;0.47;;;22.90;87.90;;;;;;4352698;32;20141;-68
2022/05/23 11:40:41;;;;;;;0.40;0.40;;;22.90;88.40;;;;;;4337079;32;20212;-68
2022/05/23 11:43:10;;;;;;;0.28;0.28;;;23.00;86.70;;;;;;4338682;32;20573;-68
2022/05/23 11:46:11;;;;;;;0.20;0.20;;;23.00;85.00;;;;;;4343788;32;20242;-68
2022/05/23 11:48:49;;;;;;;4.07;0.50;;;23.10;88.20;;;;;;4336846;32;20955;-68
2022/05/23 11:51:17;;;;;;;0.22;0.22;;;23.10;85.90;;;;;;4355937;32;20203;-68
2022/05/23 11:53:55;;;;;;;0.37;0.37;;;23.00;85.50;;;;;;4371365;32;20506;-69
2022/05/23 11:56:45;;;;;;;0.40;0.40;;;23.10;85.50;;;;;;4387159;32;20122;-69
2022/05/23 11:59:32;;;;;;;1.10;0.90;;;23.40;85.10;;;;;;4365690;32;20084;-69
2022/05/23 12:02:15;;;;;;;0.10;0.10;;;23.90;85.10;;;;;;4365948;32;20907;-69
2022/05/23 12:04:53;;;;;;;0.20;0.20;;;24.70;83.60;;;;;;4345586;32;20200;-68
2022/05/23 12:07:41;;;;;;;0.20;0.20;;;25.20;81.20;;;;;;4367030;32;20089;-69
2022/05/23 12:10:25;;;;;;;0.10;0.10;;;25.80;78.40;;;;;;4351467;32;20635;-68
2022/05/23 12:12:55;;;;;;;0.20;0.20;;;26.00;78.50;;;;;;4351258;32;20137;-69
2022/05/23 12:15:46;;;;;;;0.37;0.37;;;25.80;77.00;;;;;;4369197;32;20151;-68
2022/05/23 12:18:33;;;;;;;0.10;0.10;;;26.50;77.80;;;;;;4367116;32;20122;-68
2022/05/23 12:21:04;;;;;;;0.10;0.10;;;26.40;75.00;;;;;;4376456;32;20150;-69
2022/05/23 12:23:30;;;;;;;;;;;26.40;74.50;;;;;;4383432;32;21389;-68
2022/05/23 12:26:13;;;;;;;0.10;0.10;;;26.30;74.60;;;;;;4391506;32;20137;-69
2022/05/23 12:29:00;;;;;;;0.37;0.37;;;26.40;73.60;;;;;;4361250;32;20128;-69
2022/05/23 12:31:29;;;;;;;0.15;0.15;;;26.00;73.90;;;;;;4355613;32;20093;-68
2022/05/23 12:34:07;;;;;;;0.10;0.10;;;25.60;74.80;;;;;;4322742;32;20444;-69
2022/05/23 12:36:36;;;;;;;0.10;0.10;;;25.40;77.90;;;;;;4354362;32;20085;-68
2022/05/23 12:39:42;;;;;;;2.15;0.80;;;25.60;75.30;;;;;;4367422;32;20361;-69
2022/05/23 12:42:27;;;;;;;1.27;0.65;;;25.90;76.40;;;;;;4337464;32;20186;-69
2022/05/23 12:45:34;;;;;;;0.10;0.10;;;25.80;76.80;;;;;;4375805;32;20715;-69
2022/05/23 12:48:25;;;;;;;0.10;0.10;;;25.70;80.20;;;;;;4367454;32;20127;-69
2022/05/23 12:51:20;;;;;;;0.10;0.10;;;25.50;76.60;;;;;;4395082;32;20303;-69
2022/05/23 12:54:25;;;;;;;0.43;0.43;;;25.50;74.60;;;;;;4377676;32;20181;-69
2022/05/23 12:57:00;;;;;;;0.28;0.28;;;25.30;75.50;;;;;;4385331;32;20084;-69
2022/05/23 12:59:43;;;;;;;0.10;0.10;;;25.00;80.40;;;;;;4372456;32;20159;-69
2022/05/23 13:02:22;;;;;;;0.15;0.15;;;25.70;75.70;;;;;;4379506;32;20600;-69
2022/05/23 13:04:53;;;;;;;0.73;0.50;;;26.90;73.60;;;;;;4338036;32;20224;-69
2022/05/23 13:07:25;;;;;;;0.10;0.10;;;27.80;70.80;;;;;;4363448;32;20073;-69
2022/05/23 13:09:56;;;;;;;0.10;0.10;;;28.30;69.50;;;;;;4379377;32;20837;-69
2022/05/23 13:12:30;;;;;;;0.65;0.45;;;28.80;67.40;;;;;;4344595;32;20093;-68
2022/05/23 13:14:59;;;;;;;1.25;0.40;;;28.70;68.00;;;;;;4378330;32;20552;-68
2022/05/23 13:17:38;;;;;;;0.15;0.15;;;28.60;67.80;;;;;;4387060;32;20841;-68
2022/05/23 13:22:22;;;;;;;0.10;0.10;;;28.30;68.40;;;;;;4369445;32;20634;-68
2022/05/23 13:23:18;;;;;;;0.05;0.05;;;27.70;69.60;;;;;;4359985;32;20094;-68
2022/05/23 13:25:46;;;;;;;0.32;0.32;;;27.80;68.60;;;;;;4387025;32;20598;-68
2022/05/23 13:28:15;;;;;;;0.08;0.08;;;27.30;71.50;;;;;;4393876;32;20549;-68
2022/05/23 13:30:44;;;;;;;0.17;0.17;;;26.70;74.10;;;;;;4384618;32;20743;-68
2022/05/23 13:33:21;;;;;;;0.08;0.08;;;26.20;71.60;;;;;;4356193;32;20259;-68
2022/05/23 13:35:53;;;;;;;0.10;0.10;;;26.20;71.10;;;;;;4346737;32;20123;-69
2022/05/23 13:38:25;;;;;;;0.20;0.20;;;26.40;72.30;;;;;;4379598;32;20125;-69
2022/05/23 13:40:55;;;;;;;7.15;0.50;;;26.50;72.90;;;;;;4355947;32;20457;-69
2022/05/23 13:43:24;;;;;;;0.20;0.20;;;26.10;74.00;;;;;;4351690;32;20335;-69
2022/05/23 13:46:15;;;;;;;1.05;0.82;;;25.80;75.20;;;;;;4390220;32;20605;-69
2022/05/23 13:48:46;;;;;;;0.20;0.20;;;25.40;75.70;;;;;;4384251;32;20269;-69
2022/05/23 13:51:20;;;;;;;0.20;0.20;;;25.40;76.20;;;;;;4396813;32;20078;-69